sensor_id;sensor_type;location;lat;lon;timestamp;P1;durP1;ratioP1;P2;durP2;ratioP2
44197;SDS011;30157;55.512;37.764;2022-07-04T00:00:53;12.32;;;6.05;;
44197;SDS011;30157;55.512;37.764;2022-07-04T00:03:19;10.73;;;6.65;;
44197;SDS011;30157;55.512;37.764;2022-07-04T00:05:45;10.07;;;5.85;;
44197;SDS011;30157;55.512;37.764;2022-07-04T00:08:11;12.60;;;6.55;;
44197;SDS011;30157;55.512;37.764;2022-07-04T00:10:37;12.38;;;6.57;;
44197;SDS011;30157;55.512;37.764;2022-07-04T00:13:02;14.50;;;7.40;;
44197;SDS011;30157;55.512;37.764;2022-07-04T00:15:28;12.05;;;7.22;;
44197;SDS011;30157;55.512;37.764;2022-07-04T00:17:54;10.27;;;6.40;;
44197;SDS011;30157;55.512;37.764;2022-07-04T00:20:20;11.40;;;7.13;;
44197;SDS011;30157;55.512;37.764;2022-07-04T00:22:46;14.70;;;7.18;;
44197;SDS011;30157;55.512;37.764;2022-07-04T00:25:11;10.98;;;6.00;;
44197;SDS011;30157;55.512;37.764;2022-07-04T00:27:37;14.25;;;7.47;;
44197;SDS011;30157;55.512;37.764;2022-07-04T00:30:03;12.57;;;6.50;;
44197;SDS011;30157;55.512;37.764;2022-07-04T00:32:30;14.02;;;6.93;;
44197;SDS011;30157;55.512;37.764;2022-07-04T00:34:56;11.65;;;6.60;;
44197;SDS011;30157;55.512;37.764;2022-07-04T00:37:21;15.05;;;6.78;;
44197;SDS011;30157;55.512;37.764;2022-07-04T00:39:47;12.13;;;6.78;;
44197;SDS011;30157;55.512;37.764;2022-07-04T00:42:13;12.98;;;7.18;;
44197;SDS011;30157;55.512;37.764;2022-07-04T00:44:39;11.63;;;7.32;;
44197;SDS011;30157;55.512;37.764;2022-07-04T00:47:05;12.27;;;7.00;;
44197;SDS011;30157;55.512;37.764;2022-07-04T00:49:32;13.93;;;6.80;;
44197;SDS011;30157;55.512;37.764;2022-07-04T00:51:58;15.73;;;6.93;;
44197;SDS011;30157;55.512;37.764;2022-07-04T00:54:26;18.98;;;7.43;;
44197;SDS011;30157;55.512;37.764;2022-07-04T00:56:55;10.48;;;6.18;;
44197;SDS011;30157;55.512;37.764;2022-07-04T00:59:22;13.93;;;6.72;;
44197;SDS011;30157;55.512;37.764;2022-07-04T01:01:48;11.68;;;7.00;;
44197;SDS011;30157;55.512;37.764;2022-07-04T01:04:14;12.60;;;6.90;;
44197;SDS011;30157;55.512;37.764;2022-07-04T01:06:40;13.45;;;6.45;;
44197;SDS011;30157;55.512;37.764;2022-07-04T01:09:06;11.85;;;6.43;;
44197;SDS011;30157;55.512;37.764;2022-07-04T01:11:31;13.43;;;7.35;;
44197;SDS011;30157;55.512;37.764;2022-07-04T01:13:57;13.93;;;7.10;;
44197;SDS011;30157;55.512;37.764;2022-07-04T01:16:24;16.83;;;7.68;;
44197;SDS011;30157;55.512;37.764;2022-07-04T01:18:51;12.30;;;6.97;;
44197;SDS011;30157;55.512;37.764;2022-07-04T01:21:19;17.38;;;7.28;;
44197;SDS011;30157;55.512;37.764;2022-07-04T01:23:46;14.73;;;7.05;;
44197;SDS011;30157;55.512;37.764;2022-07-04T01:26:14;13.05;;;7.10;;
44197;SDS011;30157;55.512;37.764;2022-07-04T01:28:43;10.32;;;6.30;;
44197;SDS011;30157;55.512;37.764;2022-07-04T01:31:09;13.35;;;6.90;;
44197;SDS011;30157;55.512;37.764;2022-07-04T01:33:35;16.63;;;7.10;;
44197;SDS011;30157;55.512;37.764;2022-07-04T01:36:01;12.57;;;6.35;;
44197;SDS011;30157;55.512;37.764;2022-07-04T01:38:27;14.80;;;6.78;;
44197;SDS011;30157;55.512;37.764;2022-07-04T01:40:53;12.02;;;6.63;;
44197;SDS011;30157;55.512;37.764;2022-07-04T01:43:18;14.60;;;7.05;;
44197;SDS011;30157;55.512;37.764;2022-07-04T01:45:44;13.95;;;6.70;;
44197;SDS011;30157;55.512;37.764;2022-07-04T01:48:11;11.93;;;6.53;;
44197;SDS011;30157;55.512;37.764;2022-07-04T01:50:38;12.60;;;7.07;;
44197;SDS011;30157;55.512;37.764;2022-07-04T01:53:04;15.32;;;6.78;;
44197;SDS011;30157;55.512;37.764;2022-07-04T01:55:30;15.63;;;6.53;;
44197;SDS011;30157;55.512;37.764;2022-07-04T01:57:56;12.85;;;7.18;;
44197;SDS011;30157;55.512;37.764;2022-07-04T02:00:23;12.52;;;7.32;;
44197;SDS011;30157;55.512;37.764;2022-07-04T02:03:08;14.30;;;7.20;;
44197;SDS011;30157;55.512;37.764;2022-07-04T02:05:34;13.93;;;6.88;;
44197;SDS011;30157;55.512;37.764;2022-07-04T02:08:03;14.93;;;7.00;;
44197;SDS011;30157;55.512;37.764;2022-07-04T02:10:29;11.20;;;6.50;;
44197;SDS011;30157;55.512;37.764;2022-07-04T02:12:55;18.05;;;7.97;;
44197;SDS011;30157;55.512;37.764;2022-07-04T02:15:28;14.20;;;6.57;;
44197;SDS011;30157;55.512;37.764;2022-07-04T02:17:56;14.07;;;6.95;;
44197;SDS011;30157;55.512;37.764;2022-07-04T02:20:23;12.65;;;6.88;;
44197;SDS011;30157;55.512;37.764;2022-07-04T02:22:49;17.67;;;7.85;;
44197;SDS011;30157;55.512;37.764;2022-07-04T02:25:15;12.38;;;6.40;;
44197;SDS011;30157;55.512;37.764;2022-07-04T02:27:40;14.10;;;7.82;;
44197;SDS011;30157;55.512;37.764;2022-07-04T02:30:06;14.55;;;7.47;;
44197;SDS011;30157;55.512;37.764;2022-07-04T02:32:33;12.02;;;7.28;;
44197;SDS011;30157;55.512;37.764;2022-07-04T02:34:59;14.68;;;7.60;;
44197;SDS011;30157;55.512;37.764;2022-07-04T02:37:25;16.10;;;7.85;;
44197;SDS011;30157;55.512;37.764;2022-07-04T02:39:50;15.05;;;8.05;;
44197;SDS011;30157;55.512;37.764;2022-07-04T02:42:16;11.75;;;6.95;;
44197;SDS011;30157;55.512;37.764;2022-07-04T02:44:41;12.82;;;7.40;;
44197;SDS011;30157;55.512;37.764;2022-07-04T02:47:09;12.93;;;6.82;;
44197;SDS011;30157;55.512;37.764;2022-07-04T02:49:35;17.67;;;7.35;;
44197;SDS011;30157;55.512;37.764;2022-07-04T02:52:00;22.50;;;12.48;;
44197;SDS011;30157;55.512;37.764;2022-07-04T02:54:26;17.80;;;9.82;;
44197;SDS011;30157;55.512;37.764;2022-07-04T02:56:52;17.73;;;9.27;;
44197;SDS011;30157;55.512;37.764;2022-07-04T02:59:17;18.25;;;10.13;;
44197;SDS011;30157;55.512;37.764;2022-07-04T03:01:43;15.13;;;9.52;;
44197;SDS011;30157;55.512;37.764;2022-07-04T03:04:09;19.45;;;8.48;;
44197;SDS011;30157;55.512;37.764;2022-07-04T03:06:35;17.13;;;8.77;;
44197;SDS011;30157;55.512;37.764;2022-07-04T03:09:00;14.32;;;7.90;;
44197;SDS011;30157;55.512;37.764;2022-07-04T03:11:26;11.50;;;8.23;;
44197;SDS011;30157;55.512;37.764;2022-07-04T03:13:52;16.02;;;9.63;;
44197;SDS011;30157;55.512;37.764;2022-07-04T03:16:17;14.63;;;10.00;;
44197;SDS011;30157;55.512;37.764;2022-07-04T03:18:43;15.98;;;8.98;;
44197;SDS011;30157;55.512;37.764;2022-07-04T03:21:09;13.38;;;9.15;;
44197;SDS011;30157;55.512;37.764;2022-07-04T03:23:34;18.63;;;9.27;;
44197;SDS011;30157;55.512;37.764;2022-07-04T03:26:00;15.32;;;9.02;;
44197;SDS011;30157;55.512;37.764;2022-07-04T03:28:27;16.27;;;8.90;;
44197;SDS011;30157;55.512;37.764;2022-07-04T03:30:53;15.45;;;8.77;;
44197;SDS011;30157;55.512;37.764;2022-07-04T03:33:19;14.85;;;8.52;;
44197;SDS011;30157;55.512;37.764;2022-07-04T03:35:45;15.95;;;8.50;;
44197;SDS011;30157;55.512;37.764;2022-07-04T03:38:11;11.48;;;8.23;;
44197;SDS011;30157;55.512;37.764;2022-07-04T03:40:37;13.07;;;8.38;;
44197;SDS011;30157;55.512;37.764;2022-07-04T03:43:03;12.05;;;8.13;;
44197;SDS011;30157;55.512;37.764;2022-07-04T03:45:33;13.95;;;7.57;;
44197;SDS011;30157;55.512;37.764;2022-07-04T03:47:59;11.55;;;6.88;;
44197;SDS011;30157;55.512;37.764;2022-07-04T03:50:27;13.18;;;7.68;;
44197;SDS011;30157;55.512;37.764;2022-07-04T03:52:53;10.77;;;7.50;;
44197;SDS011;30157;55.512;37.764;2022-07-04T03:55:19;12.50;;;7.40;;
44197;SDS011;30157;55.512;37.764;2022-07-04T03:57:45;13.63;;;7.43;;
44197;SDS011;30157;55.512;37.764;2022-07-04T04:00:11;11.05;;;7.00;;
44197;SDS011;30157;55.512;37.764;2022-07-04T04:02:40;10.73;;;6.93;;
44197;SDS011;30157;55.512;37.764;2022-07-04T04:05:06;10.15;;;6.63;;
44197;SDS011;30157;55.512;37.764;2022-07-04T04:07:50;11.90;;;6.70;;
44197;SDS011;30157;55.512;37.764;2022-07-04T04:10:16;12.32;;;6.55;;
44197;SDS011;30157;55.512;37.764;2022-07-04T04:12:41;11.80;;;7.63;;
44197;SDS011;30157;55.512;37.764;2022-07-04T04:15:07;12.85;;;6.60;;
44197;SDS011;30157;55.512;37.764;2022-07-04T04:17:33;8.40;;;6.13;;
44197;SDS011;30157;55.512;37.764;2022-07-04T04:19:59;7.97;;;6.57;;
44197;SDS011;30157;55.512;37.764;2022-07-04T04:22:27;11.07;;;6.43;;
44197;SDS011;30157;55.512;37.764;2022-07-04T04:24:54;9.65;;;6.22;;
44197;SDS011;30157;55.512;37.764;2022-07-04T04:27:19;8.25;;;6.13;;
44197;SDS011;30157;55.512;37.764;2022-07-04T04:29:45;9.48;;;6.07;;
44197;SDS011;30157;55.512;37.764;2022-07-04T04:32:11;8.90;;;6.32;;
44197;SDS011;30157;55.512;37.764;2022-07-04T04:34:37;10.10;;;6.55;;
44197;SDS011;30157;55.512;37.764;2022-07-04T04:37:03;8.75;;;6.50;;
44197;SDS011;30157;55.512;37.764;2022-07-04T04:39:29;8.55;;;6.00;;
44197;SDS011;30157;55.512;37.764;2022-07-04T04:41:54;10.75;;;6.43;;
44197;SDS011;30157;55.512;37.764;2022-07-04T04:44:20;10.43;;;6.57;;
44197;SDS011;30157;55.512;37.764;2022-07-04T04:46:46;8.52;;;5.78;;
44197;SDS011;30157;55.512;37.764;2022-07-04T04:49:12;8.45;;;6.22;;
44197;SDS011;30157;55.512;37.764;2022-07-04T04:51:38;10.05;;;6.35;;
44197;SDS011;30157;55.512;37.764;2022-07-04T04:54:04;7.32;;;5.78;;
44197;SDS011;30157;55.512;37.764;2022-07-04T04:56:30;7.88;;;5.88;;
44197;SDS011;30157;55.512;37.764;2022-07-04T04:58:55;6.80;;;5.35;;
44197;SDS011;30157;55.512;37.764;2022-07-04T05:01:21;7.90;;;5.70;;
44197;SDS011;30157;55.512;37.764;2022-07-04T05:03:47;8.15;;;5.93;;
44197;SDS011;30157;55.512;37.764;2022-07-04T05:06:12;7.40;;;5.80;;
44197;SDS011;30157;55.512;37.764;2022-07-04T05:08:38;8.60;;;5.57;;
44197;SDS011;30157;55.512;37.764;2022-07-04T05:11:04;6.68;;;5.20;;
44197;SDS011;30157;55.512;37.764;2022-07-04T05:13:30;6.57;;;5.80;;
44197;SDS011;30157;55.512;37.764;2022-07-04T05:15:56;6.13;;;5.53;;
44197;SDS011;30157;55.512;37.764;2022-07-04T05:18:21;6.20;;;5.45;;
44197;SDS011;30157;55.512;37.764;2022-07-04T05:20:47;5.68;;;5.07;;
44197;SDS011;30157;55.512;37.764;2022-07-04T05:23:13;5.40;;;4.78;;
44197;SDS011;30157;55.512;37.764;2022-07-04T05:25:38;6.60;;;5.10;;
44197;SDS011;30157;55.512;37.764;2022-07-04T05:28:04;5.75;;;5.00;;
44197;SDS011;30157;55.512;37.764;2022-07-04T05:30:31;6.40;;;4.80;;
44197;SDS011;30157;55.512;37.764;2022-07-04T05:32:56;5.75;;;5.20;;
44197;SDS011;30157;55.512;37.764;2022-07-04T05:35:23;7.85;;;5.10;;
44197;SDS011;30157;55.512;37.764;2022-07-04T05:37:50;5.78;;;4.90;;
44197;SDS011;30157;55.512;37.764;2022-07-04T05:40:15;5.85;;;4.80;;
44197;SDS011;30157;55.512;37.764;2022-07-04T05:42:41;6.50;;;4.45;;
44197;SDS011;30157;55.512;37.764;2022-07-04T05:45:07;7.72;;;4.97;;
44197;SDS011;30157;55.512;37.764;2022-07-04T05:47:33;5.38;;;4.70;;
44197;SDS011;30157;55.512;37.764;2022-07-04T05:49:58;5.00;;;4.50;;
44197;SDS011;30157;55.512;37.764;2022-07-04T05:52:25;5.53;;;4.28;;
44197;SDS011;30157;55.512;37.764;2022-07-04T05:54:51;4.38;;;3.90;;
44197;SDS011;30157;55.512;37.764;2022-07-04T05:57:19;6.45;;;4.05;;
44197;SDS011;30157;55.512;37.764;2022-07-04T05:59:44;5.75;;;4.00;;
44197;SDS011;30157;55.512;37.764;2022-07-04T06:02:10;4.68;;;4.05;;
44197;SDS011;30157;55.512;37.764;2022-07-04T06:04:36;4.57;;;3.70;;
44197;SDS011;30157;55.512;37.764;2022-07-04T06:07:02;5.40;;;3.70;;
44197;SDS011;30157;55.512;37.764;2022-07-04T06:09:28;5.30;;;4.10;;
44197;SDS011;30157;55.512;37.764;2022-07-04T06:11:54;4.07;;;3.35;;
44197;SDS011;30157;55.512;37.764;2022-07-04T06:14:19;4.00;;;3.60;;
44197;SDS011;30157;55.512;37.764;2022-07-04T06:16:45;5.03;;;3.67;;
44197;SDS011;30157;55.512;37.764;2022-07-04T06:19:11;8.07;;;4.20;;
44197;SDS011;30157;55.512;37.764;2022-07-04T06:21:36;3.92;;;3.53;;
44197;SDS011;30157;55.512;37.764;2022-07-04T06:24:02;4.35;;;3.58;;
44197;SDS011;30157;55.512;37.764;2022-07-04T06:26:31;3.38;;;3.08;;
44197;SDS011;30157;55.512;37.764;2022-07-04T06:29:06;4.65;;;3.22;;
44197;SDS011;30157;55.512;37.764;2022-07-04T06:31:32;3.80;;;3.20;;
44197;SDS011;30157;55.512;37.764;2022-07-04T06:33:58;5.18;;;4.00;;
44197;SDS011;30157;55.512;37.764;2022-07-04T06:36:42;5.95;;;3.65;;
44197;SDS011;30157;55.512;37.764;2022-07-04T06:39:10;4.32;;;3.53;;
44197;SDS011;30157;55.512;37.764;2022-07-04T06:41:36;4.05;;;3.53;;
44197;SDS011;30157;55.512;37.764;2022-07-04T06:44:02;8.55;;;3.80;;
44197;SDS011;30157;55.512;37.764;2022-07-04T06:46:29;4.93;;;3.63;;
44197;SDS011;30157;55.512;37.764;2022-07-04T06:48:55;3.75;;;3.33;;
44197;SDS011;30157;55.512;37.764;2022-07-04T06:51:21;4.78;;;3.75;;
44197;SDS011;30157;55.512;37.764;2022-07-04T06:53:48;4.80;;;3.83;;
44197;SDS011;30157;55.512;37.764;2022-07-04T06:56:14;4.35;;;3.95;;
44197;SDS011;30157;55.512;37.764;2022-07-04T06:58:39;5.03;;;3.70;;
44197;SDS011;30157;55.512;37.764;2022-07-04T07:01:05;5.38;;;3.90;;
44197;SDS011;30157;55.512;37.764;2022-07-04T07:03:31;4.53;;;3.80;;
44197;SDS011;30157;55.512;37.764;2022-07-04T07:05:57;4.25;;;3.85;;
44197;SDS011;30157;55.512;37.764;2022-07-04T07:08:23;4.38;;;3.97;;
44197;SDS011;30157;55.512;37.764;2022-07-04T07:10:49;4.07;;;3.78;;
44197;SDS011;30157;55.512;37.764;2022-07-04T07:13:15;3.88;;;3.47;;
44197;SDS011;30157;55.512;37.764;2022-07-04T07:15:40;4.80;;;3.80;;
44197;SDS011;30157;55.512;37.764;2022-07-04T07:18:06;4.50;;;3.35;;
44197;SDS011;30157;55.512;37.764;2022-07-04T07:20:32;4.80;;;4.00;;
44197;SDS011;30157;55.512;37.764;2022-07-04T07:22:58;4.07;;;3.72;;
44197;SDS011;30157;55.512;37.764;2022-07-04T07:25:27;7.72;;;4.10;;
44197;SDS011;30157;55.512;37.764;2022-07-04T07:27:53;4.95;;;4.20;;
44197;SDS011;30157;55.512;37.764;2022-07-04T07:30:18;4.80;;;4.30;;
44197;SDS011;30157;55.512;37.764;2022-07-04T07:32:45;5.30;;;4.38;;
44197;SDS011;30157;55.512;37.764;2022-07-04T07:35:11;5.25;;;4.10;;
44197;SDS011;30157;55.512;37.764;2022-07-04T07:37:37;4.30;;;3.90;;
44197;SDS011;30157;55.512;37.764;2022-07-04T07:40:03;4.70;;;4.05;;
44197;SDS011;30157;55.512;37.764;2022-07-04T07:42:29;4.32;;;3.92;;
44197;SDS011;30157;55.512;37.764;2022-07-04T07:44:55;4.28;;;3.88;;
44197;SDS011;30157;55.512;37.764;2022-07-04T07:47:22;5.10;;;3.70;;
44197;SDS011;30157;55.512;37.764;2022-07-04T07:49:47;4.95;;;3.90;;
44197;SDS011;30157;55.512;37.764;2022-07-04T07:52:14;4.57;;;4.05;;
44197;SDS011;30157;55.512;37.764;2022-07-04T07:54:41;4.78;;;4.20;;
44197;SDS011;30157;55.512;37.764;2022-07-04T07:57:07;8.55;;;4.50;;
44197;SDS011;30157;55.512;37.764;2022-07-04T07:59:33;5.80;;;4.25;;
44197;SDS011;30157;55.512;37.764;2022-07-04T08:01:58;4.75;;;4.28;;
44197;SDS011;30157;55.512;37.764;2022-07-04T08:04:24;4.07;;;3.78;;
44197;SDS011;30157;55.512;37.764;2022-07-04T08:06:59;4.95;;;4.22;;
44197;SDS011;30157;55.512;37.764;2022-07-04T08:09:26;6.97;;;4.55;;
44197;SDS011;30157;55.512;37.764;2022-07-04T08:11:52;4.30;;;3.90;;
44197;SDS011;30157;55.512;37.764;2022-07-04T08:14:17;4.40;;;4.00;;
44197;SDS011;30157;55.512;37.764;2022-07-04T08:16:43;4.18;;;3.80;;
44197;SDS011;30157;55.512;37.764;2022-07-04T08:19:09;4.40;;;4.00;;
44197;SDS011;30157;55.512;37.764;2022-07-04T08:21:34;5.35;;;4.47;;
44197;SDS011;30157;55.512;37.764;2022-07-04T08:24:00;4.95;;;4.30;;
44197;SDS011;30157;55.512;37.764;2022-07-04T08:26:26;6.75;;;4.60;;
44197;SDS011;30157;55.512;37.764;2022-07-04T08:28:52;5.10;;;4.60;;
44197;SDS011;30157;55.512;37.764;2022-07-04T08:31:20;7.30;;;4.32;;
44197;SDS011;30157;55.512;37.764;2022-07-04T08:33:46;10.75;;;4.93;;
44197;SDS011;30157;55.512;37.764;2022-07-04T08:36:12;6.10;;;5.00;;
44197;SDS011;30157;55.512;37.764;2022-07-04T08:38:38;6.72;;;5.03;;
44197;SDS011;30157;55.512;37.764;2022-07-04T08:41:11;5.40;;;4.82;;
44197;SDS011;30157;55.512;37.764;2022-07-04T08:43:41;6.95;;;5.03;;
44197;SDS011;30157;55.512;37.764;2022-07-04T08:46:07;6.07;;;4.63;;
44197;SDS011;30157;55.512;37.764;2022-07-04T08:48:38;6.40;;;5.50;;
44197;SDS011;30157;55.512;37.764;2022-07-04T08:51:09;5.85;;;4.90;;
44197;SDS011;30157;55.512;37.764;2022-07-04T08:53:55;6.18;;;4.80;;
44197;SDS011;30157;55.512;37.764;2022-07-04T08:56:24;6.75;;;5.15;;
44197;SDS011;30157;55.512;37.764;2022-07-04T08:59:09;6.60;;;5.22;;
44197;SDS011;30157;55.512;37.764;2022-07-04T09:01:35;6.88;;;5.40;;
44197;SDS011;30157;55.512;37.764;2022-07-04T09:04:07;5.68;;;5.07;;
44197;SDS011;30157;55.512;37.764;2022-07-04T09:06:44;6.32;;;5.00;;
44197;SDS011;30157;55.512;37.764;2022-07-04T09:09:12;7.97;;;5.30;;
44197;SDS011;30157;55.512;37.764;2022-07-04T09:11:38;5.20;;;4.55;;
44197;SDS011;30157;55.512;37.764;2022-07-04T09:14:04;7.03;;;5.40;;
44197;SDS011;30157;55.512;37.764;2022-07-04T09:16:29;7.63;;;5.00;;
44197;SDS011;30157;55.512;37.764;2022-07-04T09:18:55;5.40;;;4.88;;
44197;SDS011;30157;55.512;37.764;2022-07-04T09:21:21;6.22;;;5.18;;
44197;SDS011;30157;55.512;37.764;2022-07-04T09:24:07;5.97;;;4.82;;
44197;SDS011;30157;55.512;37.764;2022-07-04T09:26:33;5.55;;;4.97;;
44197;SDS011;30157;55.512;37.764;2022-07-04T09:28:58;5.40;;;4.90;;
44197;SDS011;30157;55.512;37.764;2022-07-04T09:31:28;6.65;;;4.95;;
44197;SDS011;30157;55.512;37.764;2022-07-04T09:33:56;8.13;;;5.35;;
44197;SDS011;30157;55.512;37.764;2022-07-04T09:36:32;5.20;;;4.70;;
44197;SDS011;30157;55.512;37.764;2022-07-04T09:39:34;5.85;;;4.85;;
44197;SDS011;30157;55.512;37.764;2022-07-04T09:41:59;5.00;;;4.50;;
44197;SDS011;30157;55.512;37.764;2022-07-04T09:44:28;5.82;;;5.32;;
44197;SDS011;30157;55.512;37.764;2022-07-04T09:47:21;5.20;;;4.70;;
44197;SDS011;30157;55.512;37.764;2022-07-04T09:49:59;4.97;;;4.47;;
44197;SDS011;30157;55.512;37.764;2022-07-04T09:52:25;5.75;;;4.47;;
44197;SDS011;30157;55.512;37.764;2022-07-04T09:54:56;6.03;;;5.07;;
44197;SDS011;30157;55.512;37.764;2022-07-04T09:57:26;5.13;;;4.63;;
44197;SDS011;30157;55.512;37.764;2022-07-04T09:59:51;5.35;;;4.85;;
44197;SDS011;30157;55.512;37.764;2022-07-04T10:02:17;6.38;;;5.00;;
44197;SDS011;30157;55.512;37.764;2022-07-04T10:04:45;5.47;;;4.90;;
44197;SDS011;30157;55.512;37.764;2022-07-04T10:07:17;6.72;;;4.85;;
44197;SDS011;30157;55.512;37.764;2022-07-04T10:12:51;7.03;;;4.85;;
44197;SDS011;30157;55.512;37.764;2022-07-04T10:15:18;4.85;;;4.45;;
44197;SDS011;30157;55.512;37.764;2022-07-04T10:17:45;5.05;;;4.53;;
44197;SDS011;30157;55.512;37.764;2022-07-04T10:20:11;6.38;;;4.63;;
44197;SDS011;30157;55.512;37.764;2022-07-04T10:22:37;6.03;;;4.38;;
44197;SDS011;30157;55.512;37.764;2022-07-04T10:25:04;5.93;;;5.32;;
44197;SDS011;30157;55.512;37.764;2022-07-04T10:27:31;6.00;;;5.38;;
44197;SDS011;30157;55.512;37.764;2022-07-04T10:30:15;5.38;;;4.88;;
44197;SDS011;30157;55.512;37.764;2022-07-04T10:32:45;5.55;;;4.70;;
44197;SDS011;30157;55.512;37.764;2022-07-04T10:35:12;6.38;;;4.85;;
44197;SDS011;30157;55.512;37.764;2022-07-04T10:38:00;4.68;;;4.28;;
44197;SDS011;30157;55.512;37.764;2022-07-04T10:40:39;5.90;;;5.28;;
44197;SDS011;30157;55.512;37.764;2022-07-04T10:45:58;5.97;;;5.43;;
44197;SDS011;30157;55.512;37.764;2022-07-04T10:48:51;6.13;;;5.28;;
44197;SDS011;30157;55.512;37.764;2022-07-04T10:59:10;6.05;;;5.43;;
44197;SDS011;30157;55.512;37.764;2022-07-04T11:01:38;5.60;;;5.10;;
44197;SDS011;30157;55.512;37.764;2022-07-04T11:04:04;5.70;;;5.20;;
44197;SDS011;30157;55.512;37.764;2022-07-04T11:09:17;6.13;;;5.55;;
44197;SDS011;30157;55.512;37.764;2022-07-04T11:17:12;6.22;;;5.63;;
44197;SDS011;30157;55.512;37.764;2022-07-04T11:20:04;5.80;;;5.30;;
44197;SDS011;30157;55.512;37.764;2022-07-04T11:22:32;6.28;;;5.68;;
44197;SDS011;30157;55.512;37.764;2022-07-04T11:24:59;6.00;;;5.40;;
44197;SDS011;30157;55.512;37.764;2022-07-04T11:27:26;5.72;;;5.22;;
44197;SDS011;30157;55.512;37.764;2022-07-04T11:29:52;6.47;;;5.88;;
44197;SDS011;30157;55.512;37.764;2022-07-04T11:32:19;5.80;;;5.30;;
44197;SDS011;30157;55.512;37.764;2022-07-04T11:34:47;5.88;;;5.32;;
44197;SDS011;30157;55.512;37.764;2022-07-04T11:37:14;5.75;;;5.15;;
44197;SDS011;30157;55.512;37.764;2022-07-04T11:39:42;5.90;;;5.40;;
44197;SDS011;30157;55.512;37.764;2022-07-04T11:42:07;5.65;;;5.15;;
44197;SDS011;30157;55.512;37.764;2022-07-04T11:44:52;6.03;;;5.43;;
44197;SDS011;30157;55.512;37.764;2022-07-04T11:50:01;6.82;;;5.65;;
44197;SDS011;30157;55.512;37.764;2022-07-04T11:52:46;6.72;;;5.15;;
44197;SDS011;30157;55.512;37.764;2022-07-04T11:57:41;5.68;;;5.07;;
44197;SDS011;30157;55.512;37.764;2022-07-04T12:00:13;7.95;;;5.90;;
44197;SDS011;30157;55.512;37.764;2022-07-04T12:02:41;5.40;;;4.82;;
44197;SDS011;30157;55.512;37.764;2022-07-04T12:05:08;7.07;;;5.82;;
44197;SDS011;30157;55.512;37.764;2022-07-04T12:07:36;5.50;;;5.00;;
44197;SDS011;30157;55.512;37.764;2022-07-04T12:10:13;5.53;;;5.03;;
44197;SDS011;30157;55.512;37.764;2022-07-04T12:12:50;5.70;;;5.07;;
44197;SDS011;30157;55.512;37.764;2022-07-04T12:15:20;5.50;;;4.93;;
44197;SDS011;30157;55.512;37.764;2022-07-04T12:17:51;5.90;;;5.40;;
44197;SDS011;30157;55.512;37.764;2022-07-04T12:20:21;7.22;;;6.53;;
44197;SDS011;30157;55.512;37.764;2022-07-04T12:22:57;5.20;;;4.78;;
44197;SDS011;30157;55.512;37.764;2022-07-04T12:25:32;5.82;;;5.32;;
44197;SDS011;30157;55.512;37.764;2022-07-04T12:28:06;6.00;;;5.40;;
44197;SDS011;30157;55.512;37.764;2022-07-04T12:30:35;5.65;;;5.18;;
44197;SDS011;30157;55.512;37.764;2022-07-04T12:33:08;5.38;;;4.88;;
44197;SDS011;30157;55.512;37.764;2022-07-04T12:35:36;5.80;;;5.30;;
44197;SDS011;30157;55.512;37.764;2022-07-04T12:38:05;5.85;;;5.35;;
44197;SDS011;30157;55.512;37.764;2022-07-04T12:40:33;6.00;;;5.50;;
44197;SDS011;30157;55.512;37.764;2022-07-04T12:43:00;5.97;;;5.38;;
44197;SDS011;30157;55.512;37.764;2022-07-04T12:45:40;5.60;;;5.10;;
44197;SDS011;30157;55.512;37.764;2022-07-04T12:48:14;6.07;;;5.30;;
44197;SDS011;30157;55.512;37.764;2022-07-04T12:50:41;6.22;;;5.72;;
44197;SDS011;30157;55.512;37.764;2022-07-04T12:53:07;5.05;;;4.60;;
44197;SDS011;30157;55.512;37.764;2022-07-04T12:55:33;5.65;;;5.15;;
44197;SDS011;30157;55.512;37.764;2022-07-04T12:57:58;6.03;;;5.50;;
44197;SDS011;30157;55.512;37.764;2022-07-04T13:00:24;6.30;;;5.70;;
44197;SDS011;30157;55.512;37.764;2022-07-04T13:02:49;6.45;;;5.82;;
44197;SDS011;30157;55.512;37.764;2022-07-04T13:05:15;6.20;;;5.57;;
44197;SDS011;30157;55.512;37.764;2022-07-04T13:07:41;6.32;;;4.82;;
44197;SDS011;30157;55.512;37.764;2022-07-04T13:10:07;5.50;;;5.03;;
44197;SDS011;30157;55.512;37.764;2022-07-04T13:12:33;5.85;;;5.05;;
44197;SDS011;30157;55.512;37.764;2022-07-04T13:14:58;6.35;;;5.60;;
44197;SDS011;30157;55.512;37.764;2022-07-04T13:17:25;5.95;;;5.40;;
44197;SDS011;30157;55.512;37.764;2022-07-04T13:19:51;6.25;;;5.65;;
44197;SDS011;30157;55.512;37.764;2022-07-04T13:22:20;6.72;;;5.63;;
44197;SDS011;30157;55.512;37.764;2022-07-04T13:24:50;6.03;;;5.53;;
44197;SDS011;30157;55.512;37.764;2022-07-04T13:27:16;5.97;;;5.43;;
44197;SDS011;30157;55.512;37.764;2022-07-04T13:29:45;5.82;;;5.30;;
44197;SDS011;30157;55.512;37.764;2022-07-04T13:32:11;7.43;;;5.55;;
44197;SDS011;30157;55.512;37.764;2022-07-04T13:34:37;5.80;;;5.20;;
44197;SDS011;30157;55.512;37.764;2022-07-04T13:37:06;6.43;;;5.43;;
44197;SDS011;30157;55.512;37.764;2022-07-04T13:39:32;5.95;;;5.45;;
44197;SDS011;30157;55.512;37.764;2022-07-04T13:41:58;6.05;;;5.50;;
44197;SDS011;30157;55.512;37.764;2022-07-04T13:44:25;5.93;;;5.43;;
44197;SDS011;30157;55.512;37.764;2022-07-04T13:46:58;5.63;;;5.05;;
44197;SDS011;30157;55.512;37.764;2022-07-04T13:49:24;6.25;;;5.57;;
44197;SDS011;30157;55.512;37.764;2022-07-04T13:51:53;5.55;;;5.05;;
44197;SDS011;30157;55.512;37.764;2022-07-04T13:54:19;7.40;;;6.70;;
44197;SDS011;30157;55.512;37.764;2022-07-04T13:56:45;6.70;;;5.20;;
44197;SDS011;30157;55.512;37.764;2022-07-04T13:59:13;8.00;;;5.13;;
44197;SDS011;30157;55.512;37.764;2022-07-04T14:01:38;5.72;;;5.22;;
44197;SDS011;30157;55.512;37.764;2022-07-04T14:04:05;5.57;;;5.00;;
44197;SDS011;30157;55.512;37.764;2022-07-04T14:06:32;5.75;;;5.20;;
44197;SDS011;30157;55.512;37.764;2022-07-04T14:08:58;6.80;;;5.45;;
44197;SDS011;30157;55.512;37.764;2022-07-04T14:11:24;6.10;;;5.50;;
44197;SDS011;30157;55.512;37.764;2022-07-04T14:13:49;5.80;;;5.13;;
44197;SDS011;30157;55.512;37.764;2022-07-04T14:16:15;5.60;;;5.10;;
44197;SDS011;30157;55.512;37.764;2022-07-04T14:18:41;5.95;;;5.30;;
44197;SDS011;30157;55.512;37.764;2022-07-04T14:21:07;5.88;;;5.30;;
44197;SDS011;30157;55.512;37.764;2022-07-04T14:23:33;6.72;;;6.13;;
44197;SDS011;30157;55.512;37.764;2022-07-04T14:28:35;6.20;;;5.60;;
44197;SDS011;30157;55.512;37.764;2022-07-04T14:31:02;6.00;;;5.40;;
44197;SDS011;30157;55.512;37.764;2022-07-04T14:33:28;6.85;;;5.43;;
44197;SDS011;30157;55.512;37.764;2022-07-04T14:35:54;5.95;;;5.43;;
44197;SDS011;30157;55.512;37.764;2022-07-04T14:38:20;5.80;;;5.30;;
44197;SDS011;30157;55.512;37.764;2022-07-04T14:40:46;6.03;;;5.50;;
44197;SDS011;30157;55.512;37.764;2022-07-04T14:43:14;5.97;;;5.47;;
44197;SDS011;30157;55.512;37.764;2022-07-04T14:45:43;14.75;;;13.23;;
44197;SDS011;30157;55.512;37.764;2022-07-04T14:48:09;7.82;;;6.75;;
44197;SDS011;30157;55.512;37.764;2022-07-04T14:50:35;7.03;;;6.07;;
44197;SDS011;30157;55.512;37.764;2022-07-04T14:53:01;6.63;;;5.47;;
44197;SDS011;30157;55.512;37.764;2022-07-04T14:55:26;6.72;;;5.28;;
44197;SDS011;30157;55.512;37.764;2022-07-04T14:57:52;6.13;;;5.53;;
44197;SDS011;30157;55.512;37.764;2022-07-04T15:00:18;6.95;;;5.63;;
44197;SDS011;30157;55.512;37.764;2022-07-04T15:02:44;5.82;;;5.20;;